Wilton, AL (35187)

4:47 PM CST on February 01, 2015 (GMT -0600)
Montevallo | Change Station
CLOSE
Current Station
Personal Weather Station
Location: Montevallo, AL
Elevation: 502 ft
Nearby Weather Stations

Elev 502 ft 33.04 °N, 86.88 °W | Updated 14 seconds ago

Overcast
Overcast
55.9 °F
Feels Like 55.9 °F
N
1.3
Wind Variable Wind from SE
Gusts 2.5 mph

Today
High -- | Low -- °F
--% Chance of Precip.
Yesterday
High -- | Low -- °F
Precip. -- in
6:43 AM 5:19 PM
Waxing Gibbous, 96% visible
Pressure 29.87 in
Visibility 9.0 miles
Clouds Overcast 700 ft
Dew Point 56 °F
Humidity 99%
Rainfall 0.11 in
Snow Depth Not available.
UV 0 out of 12
Pollen 4.20 out of 12
Air Quality Not available.
Flu Activity Not available.
SPECI KEET 012228Z AUTO 17007G15KT 9SM OVC007 13/12 A2987 RMK AO2 RAB2155E26 P0000 T01330122

More Conditions Fewer Conditions

Pressure 29.87 in
Visibility 9.0 miles
Clouds Overcast 700 ft
Dew Point 56 °F
Humidity 99%
Rainfall 0.11 in
Snow Depth Not available.
UV 0 out of 12
Pollen 4.20 out of 12
Air Quality Not available.
Flu Activity Not available.
SPECI KEET 012228Z AUTO 17007G15KT 9SM OVC007 13/12 A2987 RMK AO2 RAB2155E26 P0000 T01330122

More Conditions Fewer Conditions

10-Day Weather Forecast

Almanac

Astronomy

Feb. 01, 2015 Rise Set
Actual Time
Civil Twilight
Nautical Twilight
Astronomical Twilight
Moon
Length of Visible Light
Length of Day
Tomorrow will be .
, % of the Moon is Illuminated

Today's Extremes

State Highs State Lows

Community

WunderPhotos

Upload Photos

1,792,581 photos uploaded!

WunderBlogs® & News

Nearby

Air Quality

  Air Quality AQ Index Pollutant
Not available.

Snow Depth

Station Depth Elevation

Earthquake Activity

City Distance Mag. Time & Date
Minimum magnitude displayed is 2.5.

Coastal Water Temperatures

Place Temperature

Nearby Weather Stations